createdAt,value
2019-05-16T00:00:46.496Z,3.93
2019-05-16T00:03:19.231Z,4.63
2019-05-16T00:05:54.557Z,4.70
2019-05-16T00:08:28.386Z,4.53
2019-05-16T00:11:00.895Z,4.73
2019-05-16T00:13:33.635Z,4.67
2019-05-16T00:16:07.993Z,4.43
2019-05-16T00:18:40.480Z,4.77
2019-05-16T00:21:13.141Z,4.90
2019-05-16T00:23:48.309Z,5.90
2019-05-16T00:26:20.050Z,4.70
2019-05-16T00:28:52.610Z,4.97
2019-05-16T00:31:25.100Z,4.43
2019-05-16T00:33:57.933Z,4.77
2019-05-16T00:36:30.570Z,5.57
2019-05-16T00:39:04.910Z,5.03
2019-05-16T00:41:38.574Z,4.63
2019-05-16T00:44:11.315Z,4.43
2019-05-16T00:46:43.866Z,4.87
2019-05-16T00:49:18.580Z,5.30
2019-05-16T00:51:50.855Z,4.93
2019-05-16T00:54:23.340Z,5.43
2019-05-16T00:56:57.817Z,5.63
2019-05-16T00:59:31.326Z,5.20
2019-05-16T01:02:03.800Z,5.97
2019-05-16T01:04:38.147Z,6.00
2019-05-16T01:07:10.790Z,5.43
2019-05-16T01:09:43.485Z,5.43
2019-05-16T01:12:17.834Z,5.50
2019-05-16T01:14:50.630Z,5.43
2019-05-16T01:17:24.575Z,5.40
2019-05-16T01:19:58.291Z,5.47
2019-05-16T01:22:30.790Z,5.83
2019-05-16T01:25:03.478Z,5.90
2019-05-16T01:27:38.369Z,5.87
2019-05-16T01:30:10.810Z,6.10
2019-05-16T01:32:43.236Z,6.23
2019-05-16T01:35:16.106Z,5.90
2019-05-16T01:37:49.017Z,5.70
2019-05-16T01:40:21.730Z,5.97
2019-05-16T01:42:54.353Z,6.80
2019-05-16T01:45:27.764Z,6.07
2019-05-16T01:48:00.425Z,6.77
2019-05-16T01:50:32.986Z,6.83
2019-05-16T01:53:05.680Z,7.27
2019-05-16T01:55:38.335Z,7.63
2019-05-16T01:58:11.145Z,7.87
2019-05-16T02:00:52.667Z,8.00
2019-05-16T02:03:18.972Z,7.70
2019-05-16T02:05:51.790Z,8.50
2019-05-16T02:08:25.275Z,7.87
2019-05-16T02:10:58.365Z,7.83
2019-05-16T02:13:31.110Z,7.97
2019-05-16T02:16:03.900Z,7.83
2019-05-16T02:18:38.211Z,7.77
2019-05-16T02:21:11.085Z,9.07
2019-05-16T02:23:43.765Z,9.20
2019-05-16T02:26:18.913Z,8.77
2019-05-16T02:28:51.098Z,9.20
2019-05-16T02:31:24.115Z,8.53
2019-05-16T02:33:56.950Z,8.33
2019-05-16T02:36:31.426Z,8.87
2019-05-16T02:39:05.240Z,8.27
2019-05-16T02:41:37.946Z,9.23
2019-05-16T02:44:12.017Z,9.97
2019-05-16T02:46:44.750Z,10.80
2019-05-16T02:49:17.417Z,10.50
2019-05-16T02:51:51.189Z,10.60
2019-05-16T02:54:24.322Z,12.10
2019-05-16T02:56:56.990Z,10.90
2019-05-16T02:59:30.775Z,12.07
2019-05-16T03:02:03.680Z,12.33
2019-05-16T03:04:39.884Z,14.67
2019-05-16T03:07:13.537Z,16.00
2019-05-16T03:09:46.715Z,15.27
2019-05-16T03:12:21.289Z,16.17
2019-05-16T03:14:54.507Z,15.60
2019-05-16T03:17:31.797Z,20.33
2019-05-16T03:20:05.297Z,17.37
2019-05-16T03:22:40.972Z,16.30
2019-05-16T03:25:13.984Z,16.67
2019-05-16T03:27:46.738Z,16.80
2019-05-16T03:30:23.584Z,17.50
2019-05-16T03:32:55.035Z,16.67
2019-05-16T03:35:33.334Z,18.00
2019-05-16T03:38:05.590Z,17.00
2019-05-16T03:40:41.017Z,17.20
2019-05-16T03:43:12.328Z,16.93
2019-05-16T03:45:45.028Z,17.30
2019-05-16T03:48:20.963Z,20.97
2019-05-16T03:50:51.982Z,19.93
2019-05-16T03:53:24.921Z,21.73
2019-05-16T03:55:57.561Z,20.87
2019-05-16T03:58:30.984Z,19.83
2019-05-16T04:01:04.030Z,23.53
2019-05-16T04:03:36.901Z,24.10
2019-05-16T04:06:11.900Z,22.27
2019-05-16T04:08:44.115Z,22.47
2019-05-16T04:11:22.107Z,23.83
2019-05-16T04:13:51.246Z,24.03
2019-05-16T04:16:23.597Z,23.23
2019-05-16T04:18:56.518Z,24.37
2019-05-16T04:21:32.256Z,37.13
2019-05-16T04:24:03.689Z,45.00
2019-05-16T04:26:36.416Z,44.83
2019-05-16T04:29:11.957Z,48.17
2019-05-16T04:31:44.427Z,49.27
2019-05-16T04:34:17.006Z,51.27
2019-05-16T04:36:51.494Z,42.77
2019-05-16T04:39:23.952Z,34.90
2019-05-16T04:41:56.567Z,39.73
2019-05-16T04:44:31.076Z,43.63
2019-05-16T04:47:03.558Z,43.23
2019-05-16T04:49:36.241Z,42.07
2019-05-16T04:52:11.281Z,48.07
2019-05-16T04:54:43.376Z,49.83
2019-05-16T04:57:15.971Z,70.03
2019-05-16T04:59:50.874Z,58.93
2019-05-16T05:02:22.754Z,43.93
2019-05-16T05:04:55.592Z,38.07
2019-05-16T05:07:30.972Z,26.53
2019-05-16T05:10:02.573Z,20.57
2019-05-16T05:12:35.982Z,20.53
2019-05-16T05:15:11.175Z,20.90
2019-05-16T05:17:43.496Z,20.60
2019-05-16T05:20:16.430Z,18.10
2019-05-16T05:22:49.951Z,17.00
2019-05-16T05:25:22.713Z,16.73
2019-05-16T05:27:55.241Z,17.67
2019-05-16T05:30:30.237Z,17.90
2019-05-16T05:33:03.003Z,19.43
2019-05-16T05:35:35.833Z,20.07
2019-05-16T05:38:10.371Z,22.77
2019-05-16T05:40:42.490Z,29.33
2019-05-16T05:43:15.011Z,58.77
2019-05-16T05:45:47.725Z,42.53
2019-05-16T05:48:21.708Z,32.67
2019-05-16T05:50:54.942Z,29.67
2019-05-16T05:53:29.843Z,22.10
2019-05-16T05:56:01.852Z,20.83
2019-05-16T05:58:34.356Z,21.30
2019-05-16T06:01:07.213Z,23.00
2019-05-16T06:03:40.190Z,18.23
2019-05-16T06:06:13.031Z,16.50
2019-05-16T06:08:45.530Z,17.63
2019-05-16T06:11:20.320Z,17.10
2019-05-16T06:13:52.771Z,14.17
2019-05-16T06:16:25.561Z,15.37
2019-05-16T06:19:00.771Z,18.60
2019-05-16T06:21:33.883Z,27.47
2019-05-16T06:24:07.180Z,60.67
2019-05-16T06:26:39.976Z,28.87
2019-05-16T06:29:12.863Z,23.80
2019-05-16T06:31:45.730Z,58.33
2019-05-16T06:34:20.769Z,24.10
2019-05-16T06:36:53.050Z,19.73
2019-05-16T06:39:37.523Z,16.43
2019-05-16T06:42:00.506Z,19.10
2019-05-16T06:44:34.271Z,24.33
2019-05-16T06:47:16.898Z,22.27
2019-05-16T06:49:41.487Z,19.20
2019-05-16T06:52:14.430Z,14.27
2019-05-16T06:54:46.941Z,11.77
2019-05-16T06:57:20.612Z,18.00
2019-05-16T06:59:53.811Z,32.50
2019-05-16T07:02:30.608Z,11.27
2019-05-16T07:05:01.103Z,60.87
2019-05-16T07:07:35.147Z,15.60
2019-05-16T07:10:09.789Z,11.37
2019-05-16T07:12:43.805Z,10.27
2019-05-16T07:15:20.453Z,10.30
2019-05-16T07:17:52.680Z,10.83
2019-05-16T07:20:25.401Z,12.93
2019-05-16T07:22:57.919Z,12.83
2019-05-16T07:25:30.640Z,11.10
2019-05-16T07:28:03.510Z,11.53
2019-05-16T07:30:36.180Z,10.77
2019-05-16T07:33:09.826Z,10.57
2019-05-16T07:35:42.352Z,9.90
2019-05-16T07:38:15.580Z,10.17
2019-05-16T07:40:50.790Z,10.57
2019-05-16T07:43:22.280Z,10.00
2019-05-16T07:45:54.680Z,10.73
2019-05-16T07:48:31.737Z,10.33
2019-05-16T07:51:05.781Z,9.43
2019-05-16T07:53:40.065Z,10.47
2019-05-16T07:56:12.404Z,10.43
2019-05-16T07:58:44.981Z,9.87
2019-05-16T08:01:17.361Z,9.50
2019-05-16T08:03:50.988Z,10.47
2019-05-16T08:06:23.741Z,11.10
2019-05-16T08:08:56.623Z,10.27
2019-05-16T08:11:30.666Z,11.93
2019-05-16T08:14:03.221Z,12.70
2019-05-16T08:16:35.951Z,11.33
2019-05-16T08:19:10.282Z,12.13
2019-05-16T08:21:43.040Z,14.13
2019-05-16T08:24:16.980Z,13.27
2019-05-16T08:26:51.586Z,15.20
2019-05-16T08:29:24.271Z,11.63
2019-05-16T08:32:01.802Z,11.33
2019-05-16T08:34:35.948Z,11.27
2019-05-16T08:37:30.632Z,10.87
2019-05-16T08:39:42.895Z,12.67
2019-05-16T08:42:15.524Z,15.30
2019-05-16T08:44:47.895Z,16.87
2019-05-16T08:47:21.275Z,15.53
2019-05-16T08:49:53.935Z,18.80
2019-05-16T08:52:26.577Z,19.50
2019-05-16T08:55:03.139Z,17.77
2019-05-16T08:57:33.565Z,13.87
2019-05-16T09:00:12.729Z,13.57
2019-05-16T09:02:42.955Z,14.13
2019-05-16T09:05:15.935Z,23.57
2019-05-16T09:07:48.538Z,18.20
2019-05-16T09:12:57.210Z,27.10
2019-05-16T09:15:29.537Z,24.37
2019-05-16T09:18:02.157Z,21.03
2019-05-16T09:20:37.383Z,22.13
2019-05-16T09:23:09.016Z,24.50
2019-05-16T09:25:41.419Z,20.57
2019-05-16T09:28:16.751Z,20.43
2019-05-16T09:30:48.335Z,21.50
2019-05-16T09:33:21.036Z,20.43
2019-05-16T09:35:53.596Z,25.23
2019-05-16T09:38:28.488Z,25.27
2019-05-16T09:41:00.336Z,22.60
2019-05-16T09:43:33.076Z,24.20
2019-05-16T09:46:07.845Z,25.80
2019-05-16T09:48:39.716Z,27.40
2019-05-16T09:51:12.135Z,20.73
2019-05-16T09:53:47.007Z,20.77
2019-05-16T09:56:18.859Z,23.63
2019-05-16T09:58:51.257Z,21.80
2019-05-16T10:01:23.956Z,18.73
2019-05-16T10:03:56.383Z,16.60
2019-05-16T10:06:28.996Z,16.43
2019-05-16T10:09:01.561Z,17.20
2019-05-16T10:11:40.995Z,18.47
2019-05-16T10:14:09.500Z,20.20
2019-05-16T10:16:41.795Z,25.87
2019-05-16T10:19:16.802Z,21.00
2019-05-16T10:21:50.189Z,19.03
2019-05-16T10:24:22.866Z,22.33
2019-05-16T10:26:57.146Z,17.20
2019-05-16T10:29:29.750Z,14.83
2019-05-16T10:32:02.191Z,16.93
2019-05-16T10:34:37.110Z,37.70
2019-05-16T10:37:09.906Z,45.60
2019-05-16T10:39:43.466Z,37.97
2019-05-16T10:42:27.439Z,21.50
2019-05-16T10:44:51.645Z,20.13
2019-05-16T10:47:24.068Z,17.53
2019-05-16T10:49:56.745Z,20.50
2019-05-16T10:52:29.166Z,20.50
2019-05-16T10:55:02.649Z,20.13
2019-05-16T10:57:37.824Z,17.77
2019-05-16T11:00:21.571Z,18.90
2019-05-16T11:02:44.922Z,18.07
2019-05-16T11:05:29.871Z,20.00
2019-05-16T11:07:53.465Z,21.43
2019-05-16T11:10:29.537Z,31.17
2019-05-16T11:13:00.645Z,16.67
2019-05-16T11:15:33.235Z,19.57
2019-05-16T11:18:06.878Z,18.03
2019-05-16T11:20:39.621Z,18.63
2019-05-16T11:23:12.120Z,18.97
2019-05-16T11:25:46.970Z,18.93
2019-05-16T11:28:19.293Z,26.37
2019-05-16T11:30:51.804Z,24.07
2019-05-16T11:33:27.893Z,17.73
2019-05-16T11:35:58.665Z,18.30
2019-05-16T11:38:31.182Z,19.67
2019-05-16T11:41:03.526Z,20.47
2019-05-16T11:43:36.681Z,17.93
2019-05-16T11:46:09.385Z,17.97
2019-05-16T11:48:42.266Z,21.43
2019-05-16T11:51:14.625Z,21.30
2019-05-16T11:53:47.708Z,20.43
2019-05-16T11:56:20.125Z,21.83
2019-05-16T11:58:52.446Z,23.87
2019-05-16T12:01:27.267Z,22.33
2019-05-16T12:03:58.866Z,21.17
2019-05-16T12:06:32.825Z,20.13
2019-05-16T12:09:08.085Z,19.27
2019-05-16T12:11:40.326Z,19.62
2019-05-16T12:14:12.730Z,22.50
2019-05-16T12:16:47.300Z,20.03
2019-05-16T12:19:19.088Z,19.80
2019-05-16T12:21:51.525Z,17.87
2019-05-16T12:24:36.382Z,25.43
2019-05-16T12:27:02.068Z,19.85
2019-05-16T12:29:37.087Z,25.17
2019-05-16T12:32:08.770Z,20.83
2019-05-16T12:34:41.425Z,19.60
2019-05-16T12:37:13.906Z,18.83
2019-05-16T12:39:47.153Z,81.70
2019-05-16T12:42:20.071Z,50.78
2019-05-16T12:44:52.345Z,24.23
2019-05-16T12:47:24.711Z,22.03
2019-05-16T12:49:57.068Z,19.63
2019-05-16T12:52:29.508Z,18.47
2019-05-16T12:55:06.126Z,18.23
2019-05-16T12:57:38.708Z,20.13
2019-05-16T13:00:15.652Z,19.97
2019-05-16T13:02:47.863Z,18.73
2019-05-16T13:05:20.635Z,18.37
2019-05-16T13:07:53.045Z,17.30
2019-05-16T13:10:27.072Z,17.57
2019-05-16T13:12:59.565Z,18.90
2019-05-16T13:15:32.027Z,17.13
2019-05-16T13:18:04.385Z,16.87
2019-05-16T13:20:39.266Z,17.60
2019-05-16T13:23:14.469Z,18.30
2019-05-16T13:25:48.206Z,17.00
2019-05-16T13:28:20.826Z,17.97
2019-05-16T13:30:53.067Z,17.00
2019-05-16T13:33:27.115Z,18.53
2019-05-16T13:35:59.649Z,18.03
2019-05-16T13:38:32.228Z,18.10
2019-05-16T13:41:07.342Z,17.30
2019-05-16T13:43:39.166Z,16.80
2019-05-16T13:46:11.426Z,18.60
2019-05-16T13:48:44.786Z,21.23
2019-05-16T13:51:19.147Z,18.83
2019-05-16T13:53:51.245Z,16.00
2019-05-16T13:56:27.163Z,13.68
2019-05-16T13:58:58.927Z,14.83
2019-05-16T14:01:31.342Z,12.03
2019-05-16T14:04:09.063Z,12.43
2019-05-16T14:06:41.444Z,15.20
2019-05-16T14:09:12.162Z,14.80
2019-05-16T14:11:46.469Z,16.32
2019-05-16T14:14:33.643Z,15.43
2019-05-16T14:16:55.545Z,16.53
2019-05-16T14:19:27.846Z,16.00
2019-05-16T14:22:00.305Z,16.57
2019-05-16T14:24:33.007Z,15.03
2019-05-16T14:27:06.627Z,15.10
2019-05-16T14:29:39.425Z,12.70
2019-05-16T14:32:11.910Z,14.53
2019-05-16T14:34:50.130Z,13.70
2019-05-16T14:37:18.394Z,14.80
2019-05-16T14:39:50.812Z,14.73
2019-05-16T14:42:23.126Z,13.88
2019-05-16T14:45:06.435Z,13.60
2019-05-16T14:47:29.648Z,11.45
2019-05-16T14:50:03.327Z,10.30
2019-05-16T14:52:36.642Z,10.33
2019-05-16T14:55:09.566Z,10.75
2019-05-16T14:57:42.006Z,12.13
2019-05-16T15:00:14.805Z,11.30
2019-05-16T15:02:48.298Z,11.00
2019-05-16T15:05:21.285Z,9.33
2019-05-16T15:07:54.105Z,10.73
2019-05-16T15:10:26.989Z,10.93
2019-05-16T15:12:59.827Z,12.83
2019-05-16T15:15:32.326Z,13.20
2019-05-16T15:18:08.036Z,11.37
2019-05-16T15:20:39.503Z,11.33
2019-05-16T15:23:12.074Z,11.22
2019-05-16T15:25:44.387Z,11.23
2019-05-16T15:28:17.336Z,13.17
2019-05-16T15:30:49.831Z,14.07
2019-05-16T15:33:22.245Z,15.30
2019-05-16T15:35:57.509Z,14.03
2019-05-16T15:38:28.705Z,17.77
2019-05-16T15:41:01.432Z,17.37
2019-05-16T15:43:36.666Z,18.98
2019-05-16T15:46:09.448Z,13.97
2019-05-16T15:48:42.831Z,14.00
2019-05-16T15:51:20.392Z,17.30
2019-05-16T15:53:50.841Z,16.00
2019-05-16T15:56:23.960Z,15.70
2019-05-16T15:58:56.586Z,16.47
2019-05-16T16:01:29.191Z,21.73
2019-05-16T16:04:02.112Z,23.40
2019-05-16T16:06:37.731Z,17.07
2019-05-16T16:09:09.896Z,16.57
2019-05-16T16:11:42.790Z,63.20
2019-05-16T16:14:17.187Z,21.60
2019-05-16T16:16:50.066Z,35.37
2019-05-16T16:19:23.060Z,32.70
2019-05-16T16:21:57.844Z,17.83
2019-05-16T16:24:30.472Z,23.03
2019-05-16T16:27:03.396Z,20.60
2019-05-16T16:29:36.711Z,15.70
2019-05-16T16:32:09.525Z,39.03
2019-05-16T16:34:42.451Z,20.03
2019-05-16T16:37:16.789Z,18.93
2019-05-16T16:39:49.960Z,33.03
2019-05-16T16:42:22.771Z,23.00
2019-05-16T16:44:56.570Z,46.67
2019-05-16T16:47:29.121Z,41.57
2019-05-16T16:50:01.884Z,24.37
2019-05-16T16:52:37.409Z,14.47
2019-05-16T16:55:09.707Z,31.33
2019-05-16T16:57:42.460Z,22.17
2019-05-16T17:00:19.457Z,77.87
2019-05-16T17:03:03.327Z,50.23
2019-05-16T17:05:27.745Z,44.27
2019-05-16T17:08:00.340Z,36.83
2019-05-16T17:10:33.195Z,65.30
2019-05-16T17:13:06.843Z,43.47
2019-05-16T17:15:42.268Z,29.77
2019-05-16T17:18:17.449Z,30.10
2019-05-16T17:20:49.837Z,27.63
2019-05-16T17:23:22.570Z,21.00
2019-05-16T17:25:56.678Z,36.70
2019-05-16T17:28:29.676Z,31.77
2019-05-16T17:31:02.606Z,101.87
2019-05-16T17:33:38.148Z,36.57
2019-05-16T17:36:10.185Z,29.63
2019-05-16T17:38:43.400Z,26.83
2019-05-16T17:41:16.830Z,23.60
2019-05-16T17:43:49.850Z,21.23
2019-05-16T17:46:33.998Z,27.57
2019-05-16T17:48:57.153Z,54.87
2019-05-16T17:51:30.285Z,51.33
2019-05-16T17:54:03.040Z,22.37
2019-05-16T17:56:37.036Z,30.13
2019-05-16T17:59:10.190Z,30.37
2019-05-16T18:01:43.040Z,16.37
2019-05-16T18:04:17.308Z,15.50
2019-05-16T18:06:50.594Z,15.37
2019-05-16T18:09:23.615Z,17.37
2019-05-16T18:11:57.444Z,17.43
2019-05-16T18:14:30.275Z,21.47
2019-05-16T18:17:02.965Z,22.87
2019-05-16T18:19:37.288Z,28.27
2019-05-16T18:22:10.221Z,28.53
2019-05-16T18:24:42.672Z,29.77
2019-05-16T18:27:17.230Z,30.90
2019-05-16T18:29:50.165Z,32.73
2019-05-16T18:32:23.125Z,32.47
2019-05-16T18:34:56.407Z,31.63
2019-05-16T18:37:33.314Z,28.27
2019-05-16T18:40:07.304Z,24.47
2019-05-16T18:42:40.226Z,17.53
2019-05-16T18:45:16.319Z,17.07
2019-05-16T18:47:48.346Z,14.40
2019-05-16T18:50:21.080Z,15.13
2019-05-16T18:52:56.947Z,14.17
2019-05-16T18:55:29.753Z,13.60
2019-05-16T18:58:04.943Z,13.43
2019-05-16T19:00:37.530Z,11.60
2019-05-16T19:03:10.670Z,12.27
2019-05-16T19:05:43.476Z,13.37
2019-05-16T19:08:16.482Z,17.43
2019-05-16T19:10:49.200Z,18.37
2019-05-16T19:13:21.975Z,17.93
2019-05-16T19:15:57.009Z,23.73
2019-05-16T19:18:29.511Z,28.77
2019-05-16T19:21:02.045Z,35.13
2019-05-16T19:23:37.413Z,39.27
2019-05-16T19:26:09.830Z,32.37
2019-05-16T19:28:42.416Z,30.60
2019-05-16T19:31:17.180Z,30.50
2019-05-16T19:33:51.172Z,30.03
2019-05-16T19:36:23.876Z,28.10
2019-05-16T19:38:57.126Z,27.17
2019-05-16T19:41:29.640Z,29.43
2019-05-16T19:44:02.665Z,30.43
2019-05-16T19:46:38.609Z,40.77
2019-05-16T19:49:10.465Z,30.47
2019-05-16T19:51:45.844Z,35.13
2019-05-16T19:54:18.675Z,62.87
2019-05-16T19:56:52.380Z,66.20
2019-05-16T19:59:27.088Z,61.47
2019-05-16T20:01:59.611Z,72.73
2019-05-16T20:04:32.555Z,80.17
2019-05-16T20:07:07.416Z,60.33
2019-05-16T20:09:41.105Z,54.43
2019-05-16T20:12:13.741Z,43.03
2019-05-16T20:14:47.301Z,41.83
2019-05-16T20:17:19.936Z,41.97
2019-05-16T20:19:52.625Z,43.13
2019-05-16T20:22:26.142Z,41.63
2019-05-16T20:24:58.980Z,61.40
2019-05-16T20:27:31.785Z,59.63
2019-05-16T20:30:06.674Z,54.57
2019-05-16T20:32:39.845Z,48.37
2019-05-16T20:35:13.020Z,45.10
2019-05-16T20:37:47.297Z,57.83
2019-05-16T20:40:20.748Z,46.23
2019-05-16T20:42:53.855Z,45.63
2019-05-16T20:45:27.161Z,46.83
2019-05-16T20:48:10.790Z,42.80
2019-05-16T20:50:34.662Z,37.63
2019-05-16T20:53:07.419Z,39.47
2019-05-16T20:55:40.340Z,40.17
2019-05-16T20:58:12.825Z,39.60
2019-05-16T21:00:46.950Z,45.73
2019-05-16T21:03:20.155Z,41.93
2019-05-16T21:05:53.042Z,40.67
2019-05-16T21:08:26.601Z,40.83
2019-05-16T21:10:59.295Z,49.23
2019-05-16T21:13:32.291Z,48.40
2019-05-16T21:16:07.042Z,51.77
2019-05-16T21:18:39.541Z,48.97
2019-05-16T21:21:12.462Z,48.63
2019-05-16T21:23:46.979Z,49.67
2019-05-16T21:26:19.981Z,50.97
2019-05-16T21:28:52.691Z,51.43
2019-05-16T21:31:27.553Z,53.73
2019-05-16T21:34:00.510Z,70.00
2019-05-16T21:36:33.416Z,64.63
2019-05-16T21:39:08.613Z,53.23
2019-05-16T21:41:41.550Z,51.97
2019-05-16T21:44:14.201Z,56.37
2019-05-16T21:46:47.310Z,55.83
2019-05-16T21:49:20.016Z,55.93
2019-05-16T21:51:52.761Z,56.23
2019-05-16T21:54:28.692Z,52.50
2019-05-16T21:56:59.586Z,49.57
2019-05-16T21:59:32.568Z,49.73
2019-05-16T22:02:05.720Z,47.00
2019-05-16T22:04:38.793Z,46.80
2019-05-16T22:07:13.315Z,37.03
2019-05-16T22:09:46.634Z,32.90
2019-05-16T22:12:19.321Z,33.43
2019-05-16T22:14:54.120Z,34.43
2019-05-16T22:17:27.503Z,31.03
2019-05-16T22:20:00.200Z,29.60
2019-05-16T22:22:32.981Z,34.57
2019-05-16T22:25:07.701Z,35.27
2019-05-16T22:27:40.150Z,38.77
2019-05-16T22:30:17.561Z,40.93
2019-05-16T22:32:50.295Z,39.50
2019-05-16T22:35:23.100Z,39.83
2019-05-16T22:37:59.265Z,40.07
2019-05-16T22:40:32.875Z,39.33
2019-05-16T22:43:09.748Z,43.47
2019-05-16T22:45:39.335Z,39.67
2019-05-16T22:48:12.245Z,36.43
2019-05-16T22:50:44.800Z,37.80
2019-05-16T22:53:17.621Z,38.63
2019-05-16T22:55:50.107Z,70.20
2019-05-16T22:58:23.076Z,59.97
2019-05-16T23:00:57.284Z,46.43
2019-05-16T23:03:30.180Z,43.80
2019-05-16T23:06:03.195Z,43.47
2019-05-16T23:08:36.471Z,48.70
2019-05-16T23:11:09.250Z,54.03
2019-05-16T23:13:41.901Z,74.40
2019-05-16T23:16:16.995Z,67.93
2019-05-16T23:18:49.145Z,63.50
2019-05-16T23:21:21.900Z,54.47
2019-05-16T23:23:56.995Z,59.60
2019-05-16T23:26:30.025Z,59.20
2019-05-16T23:29:02.886Z,40.43
2019-05-16T23:31:36.576Z,43.30
2019-05-16T23:34:09.565Z,89.13
2019-05-16T23:36:42.285Z,51.37
2019-05-16T23:39:15.140Z,71.90
2019-05-16T23:41:47.635Z,54.60
2019-05-16T23:44:20.211Z,42.83
2019-05-16T23:46:52.901Z,42.17
2019-05-16T23:49:27.479Z,59.10
2019-05-16T23:52:00.006Z,49.93
2019-05-16T23:54:32.835Z,40.93
2019-05-16T23:57:06.552Z,39.17
2019-05-16T23:59:39.605Z,36.50
